createdAt,value
2023-03-20T00:02:49.577Z,1.80
2023-03-20T00:07:53.885Z,2.10
2023-03-20T00:12:58.249Z,2.43
2023-03-20T00:18:02.159Z,1.90
2023-03-20T00:23:06.290Z,1.97
2023-03-20T00:28:33.444Z,2.50
2023-03-20T00:33:38.963Z,1.83
2023-03-20T00:38:42.767Z,2.03
2023-03-20T00:43:48.903Z,2.37
2023-03-20T00:48:53.363Z,2.80
2023-03-20T00:53:57.407Z,1.60
2023-03-20T00:59:03.325Z,2.80
2023-03-20T01:04:19.020Z,1.67
2023-03-20T01:09:22.753Z,2.17
2023-03-20T01:14:27.255Z,1.57
2023-03-20T01:19:31.108Z,1.63
2023-03-20T01:24:35.126Z,2.33
2023-03-20T01:29:39.313Z,2.03
2023-03-20T01:34:44.100Z,1.87
2023-03-20T01:39:48.165Z,1.73
2023-03-20T01:44:53.725Z,1.20
2023-03-20T01:50:23.184Z,1.70
2023-03-20T01:55:32.696Z,1.10
2023-03-20T02:00:37.943Z,2.20
2023-03-20T02:05:47.824Z,1.47
2023-03-20T02:10:51.933Z,1.70
2023-03-20T02:16:13.468Z,1.60
2023-03-20T02:27:05.236Z,1.57
2023-03-20T02:32:42.724Z,1.10
2023-03-20T02:38:23.295Z,1.10
2023-03-20T02:43:44.600Z,1.03
2023-03-20T02:49:01.628Z,1.00
2023-03-20T02:54:44.825Z,1.07
2023-03-20T03:00:05.969Z,0.93
2023-03-20T03:05:25.540Z,1.40
2023-03-20T03:10:49.030Z,1.30
2023-03-20T03:15:57.392Z,0.93
2023-03-20T03:21:04.826Z,1.07
2023-03-20T03:26:23.790Z,1.20
2023-03-20T03:31:33.738Z,1.00
2023-03-20T03:37:08.369Z,1.00
2023-03-20T03:42:28.886Z,1.13
2023-03-20T03:47:51.273Z,1.43
2023-03-20T03:53:01.004Z,1.30
2023-03-20T03:58:49.438Z,1.30
2023-03-20T04:03:58.621Z,1.10
2023-03-20T04:09:02.538Z,1.20
2023-03-20T04:14:07.171Z,1.30
2023-03-20T04:19:11.203Z,1.40
2023-03-20T04:24:16.228Z,1.13
2023-03-20T04:29:20.412Z,1.20
2023-03-20T04:34:38.266Z,1.35
2023-03-20T04:40:03.483Z,1.23
2023-03-20T04:45:09.100Z,1.13
2023-03-20T04:50:15.091Z,1.10
2023-03-20T04:55:19.996Z,1.40
2023-03-20T05:00:23.996Z,1.13
2023-03-20T05:05:28.064Z,1.38
2023-03-20T05:10:32.535Z,1.45
2023-03-20T05:15:43.992Z,1.10
2023-03-20T05:20:59.680Z,0.90
2023-03-20T05:26:26.032Z,1.50
2023-03-20T05:31:56.372Z,1.83
2023-03-20T05:37:20.619Z,1.55
2023-03-20T05:42:44.065Z,1.13
2023-03-20T05:48:06.948Z,1.42
2023-03-20T05:53:25.722Z,1.25
2023-03-20T05:59:08.209Z,1.48
2023-03-20T06:04:38.287Z,1.20
2023-03-20T06:10:00.907Z,1.42
2023-03-20T06:15:07.268Z,1.30
2023-03-20T06:20:16.279Z,1.27
2023-03-20T06:25:21.938Z,2.03
2023-03-20T06:30:27.154Z,1.50
2023-03-20T06:35:32.655Z,1.50
2023-03-20T06:40:36.958Z,0.98
2023-03-20T06:45:41.345Z,0.82
2023-03-20T06:50:54.849Z,1.30
2023-03-20T06:56:03.823Z,1.63
2023-03-20T07:01:11.483Z,1.25
2023-03-20T07:06:16.018Z,1.00
2023-03-20T07:11:20.340Z,0.90
2023-03-20T07:16:25.287Z,1.13
2023-03-20T07:21:30.618Z,1.23
2023-03-20T07:26:36.325Z,1.30
2023-03-20T07:31:40.603Z,1.45
2023-03-20T07:36:52.612Z,1.20
2023-03-20T07:41:58.706Z,1.60
2023-03-20T07:47:14.568Z,1.20
2023-03-20T07:52:18.640Z,1.45
2023-03-20T07:57:22.662Z,1.25
2023-03-20T08:02:26.727Z,1.55
2023-03-20T08:07:30.798Z,1.33
2023-03-20T08:12:34.790Z,1.45
2023-03-20T08:17:38.945Z,1.50
2023-03-20T08:22:43.491Z,1.13
2023-03-20T08:27:47.477Z,1.20
2023-03-20T08:32:51.640Z,1.20
2023-03-20T08:37:55.642Z,1.00
2023-03-20T08:42:59.933Z,1.10
2023-03-20T08:48:04.477Z,1.45
2023-03-20T08:53:08.822Z,1.10
2023-03-20T08:58:12.572Z,1.15
2023-03-20T09:03:19.618Z,0.80
2023-03-20T09:08:23.458Z,1.00
2023-03-20T09:13:28.131Z,0.98
2023-03-20T09:18:32.075Z,0.93
2023-03-20T09:23:36.083Z,0.82
2023-03-20T09:28:40.168Z,0.98
2023-03-20T09:33:44.263Z,0.70
2023-03-20T09:38:49.296Z,0.40
2023-03-20T09:44:10.300Z,0.98
2023-03-20T09:49:34.588Z,0.77
2023-03-20T09:54:53.548Z,0.80
2023-03-20T10:00:11.336Z,0.68
2023-03-20T10:05:26.900Z,0.70
2023-03-20T10:11:03.160Z,0.80
2023-03-20T10:16:13.602Z,0.70
2023-03-20T10:21:50.187Z,0.70
2023-03-20T10:26:56.587Z,1.00
2023-03-20T10:32:45.065Z,0.80
2023-03-20T10:38:01.125Z,0.95
2023-03-20T10:43:17.552Z,1.10
2023-03-20T10:48:36.830Z,0.70
2023-03-20T10:54:05.025Z,1.17
2023-03-20T10:59:29.333Z,1.10
2023-03-20T11:04:33.315Z,1.20
2023-03-20T11:09:37.448Z,1.55
2023-03-20T11:14:41.396Z,0.90
2023-03-20T11:19:45.467Z,1.23
2023-03-20T11:24:55.189Z,1.25
2023-03-20T11:30:02.144Z,1.23
2023-03-20T11:35:32.283Z,1.17
2023-03-20T11:40:37.161Z,1.35
2023-03-20T11:45:43.378Z,1.10
2023-03-20T11:51:01.879Z,1.20
2023-03-20T11:56:14.036Z,1.67
2023-03-20T12:01:18.221Z,1.13
2023-03-20T12:06:54.424Z,1.60
2023-03-20T12:12:06.087Z,1.30
2023-03-20T12:17:40.556Z,1.40
2023-03-20T12:23:11.763Z,1.65
2023-03-20T12:28:27.139Z,2.17
2023-03-20T12:34:07.970Z,2.45
2023-03-20T12:39:30.324Z,2.65
2023-03-20T12:44:52.388Z,1.65
2023-03-20T12:50:21.224Z,1.40
2023-03-20T12:55:40.194Z,1.65
2023-03-20T13:00:53.383Z,2.05
2023-03-20T13:06:37.022Z,5.32
2023-03-20T13:12:09.340Z,2.28
2023-03-20T13:17:40.254Z,0.80
2023-03-20T13:23:15.146Z,1.30
2023-03-20T13:28:37.126Z,1.80
2023-03-20T13:33:55.979Z,1.10
2023-03-20T13:39:14.849Z,1.10
2023-03-20T13:44:21.806Z,1.43
2023-03-20T13:49:53.002Z,1.50
2023-03-20T13:54:59.616Z,1.48
2023-03-20T14:00:29.404Z,2.13
2023-03-20T14:05:42.621Z,2.20
2023-03-20T14:10:46.530Z,1.52
2023-03-20T14:15:56.275Z,2.28
2023-03-20T14:21:12.383Z,5.03
2023-03-20T14:26:22.142Z,3.80
2023-03-20T14:31:33.860Z,3.93
2023-03-20T14:37:01.008Z,2.70
2023-03-20T14:42:37.847Z,3.60
2023-03-20T14:47:50.275Z,3.75
2023-03-20T14:53:22.250Z,4.70
2023-03-20T14:58:31.816Z,4.90
2023-03-20T15:03:41.431Z,8.37
2023-03-20T15:08:51.061Z,6.40
2023-03-20T15:13:56.803Z,6.43
2023-03-20T15:19:01.970Z,5.43
2023-03-20T15:24:08.398Z,6.03
2023-03-20T15:29:16.183Z,12.70
2023-03-20T15:34:24.148Z,8.80
2023-03-20T15:39:30.703Z,6.23
2023-03-20T15:44:43.681Z,5.70
2023-03-20T15:49:52.821Z,5.80
2023-03-20T15:54:59.254Z,6.50
2023-03-20T16:00:08.823Z,6.20
2023-03-20T16:05:17.387Z,6.23
2023-03-20T16:10:21.490Z,7.00
2023-03-20T16:15:28.484Z,4.67
2023-03-20T16:20:39.869Z,5.35
2023-03-20T16:25:43.704Z,6.17
2023-03-20T16:30:47.911Z,6.13
2023-03-20T16:35:52.616Z,6.13
2023-03-20T16:41:32.872Z,5.20
2023-03-20T16:46:36.828Z,5.83
2023-03-20T16:51:45.083Z,4.80
2023-03-20T16:56:55.131Z,5.70
2023-03-20T17:02:02.380Z,5.67
2023-03-20T17:07:26.251Z,6.18
2023-03-20T17:12:33.626Z,5.60
2023-03-20T17:17:38.703Z,6.10
2023-03-20T17:22:42.656Z,5.63
2023-03-20T17:27:47.050Z,5.03
2023-03-20T17:32:51.238Z,5.50
2023-03-20T17:37:55.045Z,5.10
2023-03-20T17:42:58.943Z,5.87
2023-03-20T17:48:02.746Z,6.53
2023-03-20T17:53:06.835Z,5.60
2023-03-20T17:58:23.352Z,5.27
2023-03-20T18:03:27.624Z,4.73
2023-03-20T18:08:32.113Z,5.20
2023-03-20T18:13:35.962Z,4.23
2023-03-20T18:18:40.032Z,4.80
2023-03-20T18:23:44.965Z,6.13
2023-03-20T18:28:52.125Z,6.53
2023-03-20T18:33:55.986Z,5.03
2023-03-20T18:39:00.209Z,3.23
2023-03-20T18:44:03.999Z,5.15
2023-03-20T18:49:08.087Z,4.43
2023-03-20T18:54:12.380Z,4.07
2023-03-20T18:59:16.859Z,3.23
2023-03-20T19:04:21.029Z,3.77
2023-03-20T19:09:25.094Z,3.07
2023-03-20T19:14:29.001Z,2.67
2023-03-20T19:19:32.878Z,2.40
2023-03-20T19:24:37.078Z,2.53
2023-03-20T19:29:41.341Z,2.90
2023-03-20T19:35:35.292Z,2.58
2023-03-20T19:40:26.378Z,2.33
2023-03-20T19:45:34.381Z,1.83
2023-03-20T19:50:41.676Z,3.13
2023-03-20T19:55:48.083Z,2.00
2023-03-20T20:00:57.839Z,2.83
2023-03-20T20:06:04.682Z,2.43
2023-03-20T20:11:10.557Z,2.03
2023-03-20T20:16:14.364Z,1.95
2023-03-20T20:26:53.311Z,2.00
2023-03-20T20:31:59.983Z,2.13
2023-03-20T20:42:27.785Z,1.92
2023-03-20T20:47:32.636Z,2.20
2023-03-20T20:52:40.945Z,1.90
2023-03-20T20:57:46.253Z,2.10
2023-03-20T21:02:50.572Z,1.80
2023-03-20T21:07:54.687Z,2.25
2023-03-20T21:12:59.983Z,2.20
2023-03-20T21:18:03.899Z,1.98
2023-03-20T21:23:08.483Z,2.58
2023-03-20T21:28:13.195Z,2.23
2023-03-20T21:33:17.108Z,2.03
2023-03-20T21:43:48.177Z,2.25
2023-03-20T21:49:47.801Z,1.65
2023-03-20T22:16:36.648Z,1.65
2023-03-20T22:21:55.979Z,1.63
2023-03-20T22:38:17.190Z,2.20
2023-03-20T22:43:26.538Z,1.50
2023-03-20T22:48:16.503Z,1.60
2023-03-20T22:53:20.716Z,1.77
2023-03-20T22:58:24.626Z,2.17
2023-03-20T23:03:42.513Z,2.45
2023-03-20T23:08:52.348Z,2.22
2023-03-20T23:13:59.516Z,2.28
2023-03-20T23:19:03.342Z,2.47
2023-03-20T23:24:07.643Z,1.80
2023-03-20T23:29:12.553Z,2.10
2023-03-20T23:34:18.104Z,1.92
2023-03-20T23:39:22.457Z,2.33
2023-03-20T23:44:26.780Z,2.23
2023-03-20T23:49:31.069Z,2.42
2023-03-20T23:54:34.836Z,2.60
2023-03-20T23:59:39.018Z,2.25
